sensor_id;sensor_type;location;lat;lon;timestamp;temperature;humidity
49503;DHT22;35409;48.776;9.204;2024-03-08T00:01:01;2.10;99.90
49503;DHT22;35409;48.776;9.204;2024-03-08T00:03:26;2.00;99.90
49503;DHT22;35409;48.776;9.204;2024-03-08T00:05:54;1.90;99.90
49503;DHT22;35409;48.776;9.204;2024-03-08T00:08:20;1.70;99.90
49503;DHT22;35409;48.776;9.204;2024-03-08T00:10:45;1.60;99.90
49503;DHT22;35409;48.776;9.204;2024-03-08T00:13:11;1.60;99.90
49503;DHT22;35409;48.776;9.204;2024-03-08T00:15:37;1.50;99.90
49503;DHT22;35409;48.776;9.204;2024-03-08T00:18:02;1.40;99.90
49503;DHT22;35409;48.776;9.204;2024-03-08T00:20:28;1.30;99.90
49503;DHT22;35409;48.776;9.204;2024-03-08T00:22:53;1.30;99.90
49503;DHT22;35409;48.776;9.204;2024-03-08T00:25:19;1.20;99.90
49503;DHT22;35409;48.776;9.204;2024-03-08T00:27:45;1.20;99.90
49503;DHT22;35409;48.776;9.204;2024-03-08T00:30:11;1.10;99.90
49503;DHT22;35409;48.776;9.204;2024-03-08T00:49:44;0.70;99.90
49503;DHT22;35409;48.776;9.204;2024-03-08T00:52:09;0.70;99.90
49503;DHT22;35409;48.776;9.204;2024-03-08T00:54:36;0.60;99.90
49503;DHT22;35409;48.776;9.204;2024-03-08T00:57:02;0.50;99.90
49503;DHT22;35409;48.776;9.204;2024-03-08T00:59:32;0.50;99.90
49503;DHT22;35409;48.776;9.204;2024-03-08T01:02:01;0.40;99.90
49503;DHT22;35409;48.776;9.204;2024-03-08T01:04:27;0.30;99.90
49503;DHT22;35409;48.776;9.204;2024-03-08T01:06:59;0.30;99.90
49503;DHT22;35409;48.776;9.204;2024-03-08T01:09:25;0.20;99.90
49503;DHT22;35409;48.776;9.204;2024-03-08T01:11:52;0.20;99.90
49503;DHT22;35409;48.776;9.204;2024-03-08T01:14:20;0.10;99.90
49503;DHT22;35409;48.776;9.204;2024-03-08T01:16:48;0.10;99.90
49503;DHT22;35409;48.776;9.204;2024-03-08T01:19:14;0.00;99.90
49503;DHT22;35409;48.776;9.204;2024-03-08T01:21:41;0.00;99.90
49503;DHT22;35409;48.776;9.204;2024-03-08T01:24:06;-0.10;99.90
49503;DHT22;35409;48.776;9.204;2024-03-08T01:26:32;-0.10;99.90
49503;DHT22;35409;48.776;9.204;2024-03-08T01:29:00;-0.10;99.90
49503;DHT22;35409;48.776;9.204;2024-03-08T01:31:25;-0.10;99.90
49503;DHT22;35409;48.776;9.204;2024-03-08T01:33:51;-0.10;99.90
49503;DHT22;35409;48.776;9.204;2024-03-08T01:36:16;-0.10;99.90
49503;DHT22;35409;48.776;9.204;2024-03-08T01:38:43;-0.10;99.90
49503;DHT22;35409;48.776;9.204;2024-03-08T01:41:08;-0.10;99.90
49503;DHT22;35409;48.776;9.204;2024-03-08T01:43:34;-0.10;99.90
49503;DHT22;35409;48.776;9.204;2024-03-08T01:46:00;-0.10;99.90
49503;DHT22;35409;48.776;9.204;2024-03-08T01:48:28;-0.10;99.90
49503;DHT22;35409;48.776;9.204;2024-03-08T01:50:58;-0.20;99.90
49503;DHT22;35409;48.776;9.204;2024-03-08T01:53:24;-0.20;99.90
49503;DHT22;35409;48.776;9.204;2024-03-08T01:55:56;-0.20;99.90
49503;DHT22;35409;48.776;9.204;2024-03-08T01:58:23;-0.30;99.90
49503;DHT22;35409;48.776;9.204;2024-03-08T02:00:49;-0.30;99.90
49503;DHT22;35409;48.776;9.204;2024-03-08T02:03:18;-0.40;99.90
49503;DHT22;35409;48.776;9.204;2024-03-08T02:05:43;-0.40;99.90
49503;DHT22;35409;48.776;9.204;2024-03-08T02:08:09;-0.40;99.90
49503;DHT22;35409;48.776;9.204;2024-03-08T02:10:44;-0.40;99.90
49503;DHT22;35409;48.776;9.204;2024-03-08T02:13:09;-0.40;99.90
49503;DHT22;35409;48.776;9.204;2024-03-08T02:15:54;-0.40;99.90
49503;DHT22;35409;48.776;9.204;2024-03-08T02:18:21;-0.40;99.90
49503;DHT22;35409;48.776;9.204;2024-03-08T02:20:51;-0.40;99.90
49503;DHT22;35409;48.776;9.204;2024-03-08T02:23:21;-0.40;99.90
49503;DHT22;35409;48.776;9.204;2024-03-08T02:25:47;-0.40;99.90
49503;DHT22;35409;48.776;9.204;2024-03-08T02:28:14;-0.50;99.90
49503;DHT22;35409;48.776;9.204;2024-03-08T02:30:40;-0.40;99.90
49503;DHT22;35409;48.776;9.204;2024-03-08T02:33:06;-0.50;99.90
49503;DHT22;35409;48.776;9.204;2024-03-08T02:35:35;-0.50;99.90
49503;DHT22;35409;48.776;9.204;2024-03-08T02:38:02;-0.60;99.90
49503;DHT22;35409;48.776;9.204;2024-03-08T02:40:29;-0.60;99.90
49503;DHT22;35409;48.776;9.204;2024-03-08T02:42:54;-0.60;99.90
49503;DHT22;35409;48.776;9.204;2024-03-08T02:45:20;-0.60;99.90
49503;DHT22;35409;48.776;9.204;2024-03-08T02:47:46;-0.60;99.90
49503;DHT22;35409;48.776;9.204;2024-03-08T02:50:12;-0.60;99.90
49503;DHT22;35409;48.776;9.204;2024-03-08T02:52:42;-0.60;99.90
49503;DHT22;35409;48.776;9.204;2024-03-08T02:55:08;-0.60;99.90
49503;DHT22;35409;48.776;9.204;2024-03-08T02:57:36;-0.60;99.90
49503;DHT22;35409;48.776;9.204;2024-03-08T03:00:02;-0.60;99.90
49503;DHT22;35409;48.776;9.204;2024-03-08T03:02:29;-0.60;99.90
49503;DHT22;35409;48.776;9.204;2024-03-08T03:04:55;-0.60;99.90
49503;DHT22;35409;48.776;9.204;2024-03-08T03:07:21;-0.60;99.90
49503;DHT22;35409;48.776;9.204;2024-03-08T03:09:47;-0.40;99.90
49503;DHT22;35409;48.776;9.204;2024-03-08T03:12:12;-0.40;99.90
49503;DHT22;35409;48.776;9.204;2024-03-08T03:14:39;-0.30;99.90
49503;DHT22;35409;48.776;9.204;2024-03-08T03:17:05;-0.30;99.90
49503;DHT22;35409;48.776;9.204;2024-03-08T03:19:31;-0.10;99.90
49503;DHT22;35409;48.776;9.204;2024-03-08T03:21:56;0.10;99.90
49503;DHT22;35409;48.776;9.204;2024-03-08T03:24:22;0.20;99.90
49503;DHT22;35409;48.776;9.204;2024-03-08T03:26:49;0.40;99.90
49503;DHT22;35409;48.776;9.204;2024-03-08T03:29:15;0.60;99.90
49503;DHT22;35409;48.776;9.204;2024-03-08T03:31:42;0.70;99.90
49503;DHT22;35409;48.776;9.204;2024-03-08T03:34:10;0.70;99.90
49503;DHT22;35409;48.776;9.204;2024-03-08T03:36:37;0.80;99.90
49503;DHT22;35409;48.776;9.204;2024-03-08T03:39:08;0.80;99.90
49503;DHT22;35409;48.776;9.204;2024-03-08T03:41:38;0.90;99.90
49503;DHT22;35409;48.776;9.204;2024-03-08T03:44:05;0.80;99.90
49503;DHT22;35409;48.776;9.204;2024-03-08T03:46:32;0.70;99.90
49503;DHT22;35409;48.776;9.204;2024-03-08T03:48:58;0.70;99.90
49503;DHT22;35409;48.776;9.204;2024-03-08T03:51:24;0.70;99.90
49503;DHT22;35409;48.776;9.204;2024-03-08T03:53:49;0.70;99.90
49503;DHT22;35409;48.776;9.204;2024-03-08T03:56:15;0.70;99.90
49503;DHT22;35409;48.776;9.204;2024-03-08T03:58:41;0.70;99.90
49503;DHT22;35409;48.776;9.204;2024-03-08T04:01:06;0.70;99.90
49503;DHT22;35409;48.776;9.204;2024-03-08T04:03:32;0.70;99.90
49503;DHT22;35409;48.776;9.204;2024-03-08T04:05:57;0.80;99.90
49503;DHT22;35409;48.776;9.204;2024-03-08T04:08:23;0.80;99.90
49503;DHT22;35409;48.776;9.204;2024-03-08T04:10:51;0.70;99.90
49503;DHT22;35409;48.776;9.204;2024-03-08T04:13:17;0.70;99.90
49503;DHT22;35409;48.776;9.204;2024-03-08T04:15:42;0.70;99.90
49503;DHT22;35409;48.776;9.204;2024-03-08T04:18:13;0.70;99.90
49503;DHT22;35409;48.776;9.204;2024-03-08T04:20:39;0.70;99.90
49503;DHT22;35409;48.776;9.204;2024-03-08T04:23:05;0.80;99.90
49503;DHT22;35409;48.776;9.204;2024-03-08T04:25:31;0.80;99.90
49503;DHT22;35409;48.776;9.204;2024-03-08T04:27:57;0.90;99.90
49503;DHT22;35409;48.776;9.204;2024-03-08T04:30:23;0.80;99.90
49503;DHT22;35409;48.776;9.204;2024-03-08T04:32:49;0.80;99.90
49503;DHT22;35409;48.776;9.204;2024-03-08T04:35:15;0.90;99.90
49503;DHT22;35409;48.776;9.204;2024-03-08T04:37:40;0.80;99.90
49503;DHT22;35409;48.776;9.204;2024-03-08T04:40:07;0.80;99.90
49503;DHT22;35409;48.776;9.204;2024-03-08T04:42:33;0.80;99.90
49503;DHT22;35409;48.776;9.204;2024-03-08T04:44:59;0.70;99.90
49503;DHT22;35409;48.776;9.204;2024-03-08T04:47:25;0.60;99.90
49503;DHT22;35409;48.776;9.204;2024-03-08T04:49:50;0.60;99.90
49503;DHT22;35409;48.776;9.204;2024-03-08T04:52:16;0.60;99.90
49503;DHT22;35409;48.776;9.204;2024-03-08T04:54:43;0.50;99.90
49503;DHT22;35409;48.776;9.204;2024-03-08T04:57:08;0.50;99.90
49503;DHT22;35409;48.776;9.204;2024-03-08T04:59:34;0.40;99.90
49503;DHT22;35409;48.776;9.204;2024-03-08T05:02:00;0.40;99.90
49503;DHT22;35409;48.776;9.204;2024-03-08T05:04:25;0.30;99.90
49503;DHT22;35409;48.776;9.204;2024-03-08T05:06:51;0.30;99.90
49503;DHT22;35409;48.776;9.204;2024-03-08T05:09:17;0.40;99.90
49503;DHT22;35409;48.776;9.204;2024-03-08T05:11:45;0.30;99.90
49503;DHT22;35409;48.776;9.204;2024-03-08T05:14:11;0.40;99.90
49503;DHT22;35409;48.776;9.204;2024-03-08T05:16:38;0.40;99.90
49503;DHT22;35409;48.776;9.204;2024-03-08T05:19:03;0.40;99.90
49503;DHT22;35409;48.776;9.204;2024-03-08T05:21:29;0.40;99.90
49503;DHT22;35409;48.776;9.204;2024-03-08T05:23:54;0.40;99.90
49503;DHT22;35409;48.776;9.204;2024-03-08T05:26:20;0.30;99.90
49503;DHT22;35409;48.776;9.204;2024-03-08T05:28:47;0.30;99.90
49503;DHT22;35409;48.776;9.204;2024-03-08T05:31:23;0.30;99.90
49503;DHT22;35409;48.776;9.204;2024-03-08T05:33:49;0.30;99.90
49503;DHT22;35409;48.776;9.204;2024-03-08T05:36:15;0.40;99.90
49503;DHT22;35409;48.776;9.204;2024-03-08T05:38:43;0.40;99.90
49503;DHT22;35409;48.776;9.204;2024-03-08T05:41:11;0.50;99.90
49503;DHT22;35409;48.776;9.204;2024-03-08T05:43:37;0.50;99.90
49503;DHT22;35409;48.776;9.204;2024-03-08T05:46:04;0.50;99.90
49503;DHT22;35409;48.776;9.204;2024-03-08T05:48:32;0.50;99.90
49503;DHT22;35409;48.776;9.204;2024-03-08T05:50:59;0.40;99.90
49503;DHT22;35409;48.776;9.204;2024-03-08T05:53:25;0.40;99.90
49503;DHT22;35409;48.776;9.204;2024-03-08T05:55:52;0.30;99.90
49503;DHT22;35409;48.776;9.204;2024-03-08T05:58:17;0.30;99.90
49503;DHT22;35409;48.776;9.204;2024-03-08T06:00:43;0.30;99.90
49503;DHT22;35409;48.776;9.204;2024-03-08T06:03:11;0.40;99.90
49503;DHT22;35409;48.776;9.204;2024-03-08T06:05:37;0.40;99.90
49503;DHT22;35409;48.776;9.204;2024-03-08T06:08:06;0.40;99.90
49503;DHT22;35409;48.776;9.204;2024-03-08T06:10:33;0.40;99.90
49503;DHT22;35409;48.776;9.204;2024-03-08T06:12:58;0.30;99.90
49503;DHT22;35409;48.776;9.204;2024-03-08T06:15:25;0.30;99.90
49503;DHT22;35409;48.776;9.204;2024-03-08T06:17:51;0.30;99.90
49503;DHT22;35409;48.776;9.204;2024-03-08T06:20:18;0.40;99.90
49503;DHT22;35409;48.776;9.204;2024-03-08T06:22:43;0.40;99.90
49503;DHT22;35409;48.776;9.204;2024-03-08T06:25:11;0.40;99.90
49503;DHT22;35409;48.776;9.204;2024-03-08T06:27:41;0.50;99.90
49503;DHT22;35409;48.776;9.204;2024-03-08T06:30:08;0.60;99.90
49503;DHT22;35409;48.776;9.204;2024-03-08T06:32:35;0.70;99.90
49503;DHT22;35409;48.776;9.204;2024-03-08T06:35:07;0.80;99.90
49503;DHT22;35409;48.776;9.204;2024-03-08T06:37:35;0.80;99.90
49503;DHT22;35409;48.776;9.204;2024-03-08T06:40:01;0.70;99.90
49503;DHT22;35409;48.776;9.204;2024-03-08T06:42:27;0.80;99.90
49503;DHT22;35409;48.776;9.204;2024-03-08T06:44:53;0.80;99.90
49503;DHT22;35409;48.776;9.204;2024-03-08T06:47:21;0.90;99.90
49503;DHT22;35409;48.776;9.204;2024-03-08T06:49:48;1.00;99.90
49503;DHT22;35409;48.776;9.204;2024-03-08T06:52:14;1.00;99.90
49503;DHT22;35409;48.776;9.204;2024-03-08T06:54:43;1.10;99.90
49503;DHT22;35409;48.776;9.204;2024-03-08T06:57:08;1.20;99.90
49503;DHT22;35409;48.776;9.204;2024-03-08T06:59:36;1.40;99.90
49503;DHT22;35409;48.776;9.204;2024-03-08T07:02:02;1.50;99.90
49503;DHT22;35409;48.776;9.204;2024-03-08T07:04:29;1.60;99.90
49503;DHT22;35409;48.776;9.204;2024-03-08T07:06:58;1.80;99.90
49503;DHT22;35409;48.776;9.204;2024-03-08T07:09:24;1.80;99.90
49503;DHT22;35409;48.776;9.204;2024-03-08T07:24:05;2.70;99.90
49503;DHT22;35409;48.776;9.204;2024-03-08T07:26:43;2.80;99.90
49503;DHT22;35409;48.776;9.204;2024-03-08T07:29:09;2.90;99.90
49503;DHT22;35409;48.776;9.204;2024-03-08T07:31:35;2.90;99.90
49503;DHT22;35409;48.776;9.204;2024-03-08T07:34:15;3.00;99.90
49503;DHT22;35409;48.776;9.204;2024-03-08T07:36:42;3.60;99.90
49503;DHT22;35409;48.776;9.204;2024-03-08T07:39:07;3.10;99.90
49503;DHT22;35409;48.776;9.204;2024-03-08T07:41:40;3.10;99.90
49503;DHT22;35409;48.776;9.204;2024-03-08T07:44:06;3.40;99.90
49503;DHT22;35409;48.776;9.204;2024-03-08T07:46:32;3.50;99.90
49503;DHT22;35409;48.776;9.204;2024-03-08T09:34:28;5.40;99.90
49503;DHT22;35409;48.776;9.204;2024-03-08T09:36:54;5.40;99.90
49503;DHT22;35409;48.776;9.204;2024-03-08T09:39:19;5.40;99.90
49503;DHT22;35409;48.776;9.204;2024-03-08T09:41:46;5.40;99.90
49503;DHT22;35409;48.776;9.204;2024-03-08T09:44:16;5.40;99.90
49503;DHT22;35409;48.776;9.204;2024-03-08T09:46:42;5.40;99.90
49503;DHT22;35409;48.776;9.204;2024-03-08T09:49:08;5.40;99.90
49503;DHT22;35409;48.776;9.204;2024-03-08T09:51:37;5.50;99.90
49503;DHT22;35409;48.776;9.204;2024-03-08T09:54:05;5.50;99.90
49503;DHT22;35409;48.776;9.204;2024-03-08T09:56:35;5.60;99.90
49503;DHT22;35409;48.776;9.204;2024-03-08T09:59:01;5.70;99.90
49503;DHT22;35409;48.776;9.204;2024-03-08T10:01:59;5.80;99.90
49503;DHT22;35409;48.776;9.204;2024-03-08T10:04:28;6.00;99.90
49503;DHT22;35409;48.776;9.204;2024-03-08T10:06:59;6.00;99.90
49503;DHT22;35409;48.776;9.204;2024-03-08T10:09:25;6.10;99.90
49503;DHT22;35409;48.776;9.204;2024-03-08T10:11:59;6.20;99.90
49503;DHT22;35409;48.776;9.204;2024-03-08T10:14:25;6.30;99.90
49503;DHT22;35409;48.776;9.204;2024-03-08T10:19:18;6.60;99.90
49503;DHT22;35409;48.776;9.204;2024-03-08T10:21:51;6.60;99.90
49503;DHT22;35409;48.776;9.204;2024-03-08T10:24:19;6.70;99.90
49503;DHT22;35409;48.776;9.204;2024-03-08T10:26:45;6.90;99.90
49503;DHT22;35409;48.776;9.204;2024-03-08T10:29:12;6.80;99.90
49503;DHT22;35409;48.776;9.204;2024-03-08T10:31:43;6.90;99.90
49503;DHT22;35409;48.776;9.204;2024-03-08T10:34:10;6.90;99.90
49503;DHT22;35409;48.776;9.204;2024-03-08T10:36:36;6.80;99.90
49503;DHT22;35409;48.776;9.204;2024-03-08T10:39:16;6.90;99.90
49503;DHT22;35409;48.776;9.204;2024-03-08T10:41:49;7.10;99.90
49503;DHT22;35409;48.776;9.204;2024-03-08T12:08:51;9.90;99.90
49503;DHT22;35409;48.776;9.204;2024-03-08T12:11:20;10.00;99.90
49503;DHT22;35409;48.776;9.204;2024-03-08T12:13:49;10.20;99.90
49503;DHT22;35409;48.776;9.204;2024-03-08T12:16:19;10.30;99.90
49503;DHT22;35409;48.776;9.204;2024-03-08T12:18:47;10.60;99.90
49503;DHT22;35409;48.776;9.204;2024-03-08T12:21:14;10.80;99.90
49503;DHT22;35409;48.776;9.204;2024-03-08T12:23:44;11.00;99.90
49503;DHT22;35409;48.776;9.204;2024-03-08T12:50:48;13.40;99.90
49503;DHT22;35409;48.776;9.204;2024-03-08T12:53:16;13.50;99.90
49503;DHT22;35409;48.776;9.204;2024-03-08T12:55:41;13.80;99.90
49503;DHT22;35409;48.776;9.204;2024-03-08T12:58:07;14.00;99.90
49503;DHT22;35409;48.776;9.204;2024-03-08T13:00:36;14.20;99.90
49503;DHT22;35409;48.776;9.204;2024-03-08T13:03:02;14.30;99.90
49503;DHT22;35409;48.776;9.204;2024-03-08T13:07:56;14.80;99.90
49503;DHT22;35409;48.776;9.204;2024-03-08T13:10:23;15.10;94.20
49503;DHT22;35409;48.776;9.204;2024-03-08T13:12:49;15.40;93.50
49503;DHT22;35409;48.776;9.204;2024-03-08T13:15:15;15.50;93.30
49503;DHT22;35409;48.776;9.204;2024-03-08T13:17:41;15.50;93.10
49503;DHT22;35409;48.776;9.204;2024-03-08T13:20:08;15.50;93.00
49503;DHT22;35409;48.776;9.204;2024-03-08T13:22:35;15.70;97.40
49503;DHT22;35409;48.776;9.204;2024-03-08T13:25:01;15.60;97.40
49503;DHT22;35409;48.776;9.204;2024-03-08T13:27:28;15.50;97.30
49503;DHT22;35409;48.776;9.204;2024-03-08T13:29:53;15.50;97.70
49503;DHT22;35409;48.776;9.204;2024-03-08T13:32:19;15.60;97.30
49503;DHT22;35409;48.776;9.204;2024-03-08T13:34:48;15.50;97.20
49503;DHT22;35409;48.776;9.204;2024-03-08T13:37:14;15.60;97.30
49503;DHT22;35409;48.776;9.204;2024-03-08T13:39:41;15.70;97.30
49503;DHT22;35409;48.776;9.204;2024-03-08T13:42:12;16.00;99.90
49503;DHT22;35409;48.776;9.204;2024-03-08T13:44:48;15.50;99.90
49503;DHT22;35409;48.776;9.204;2024-03-08T13:47:17;15.00;99.90
49503;DHT22;35409;48.776;9.204;2024-03-08T13:49:43;14.90;99.90
49503;DHT22;35409;48.776;9.204;2024-03-08T13:52:10;15.00;99.90
49503;DHT22;35409;48.776;9.204;2024-03-08T13:54:36;15.20;99.90
49503;DHT22;35409;48.776;9.204;2024-03-08T13:59:31;15.20;99.90
49503;DHT22;35409;48.776;9.204;2024-03-08T14:01:59;15.00;99.90
49503;DHT22;35409;48.776;9.204;2024-03-08T14:04:25;14.70;99.90
49503;DHT22;35409;48.776;9.204;2024-03-08T14:06:52;14.40;99.90
49503;DHT22;35409;48.776;9.204;2024-03-08T14:09:22;14.10;99.90
49503;DHT22;35409;48.776;9.204;2024-03-08T14:11:51;13.80;99.90
49503;DHT22;35409;48.776;9.204;2024-03-08T14:14:22;13.80;99.90
49503;DHT22;35409;48.776;9.204;2024-03-08T14:16:51;13.90;99.90
49503;DHT22;35409;48.776;9.204;2024-03-08T14:19:20;14.00;99.90
49503;DHT22;35409;48.776;9.204;2024-03-08T14:21:47;13.90;99.90
49503;DHT22;35409;48.776;9.204;2024-03-08T14:24:18;13.70;99.90
49503;DHT22;35409;48.776;9.204;2024-03-08T14:26:45;13.80;99.90
49503;DHT22;35409;48.776;9.204;2024-03-08T14:29:11;13.90;99.90
49503;DHT22;35409;48.776;9.204;2024-03-08T14:31:38;14.10;99.90
49503;DHT22;35409;48.776;9.204;2024-03-08T14:34:04;14.40;99.90
49503;DHT22;35409;48.776;9.204;2024-03-08T14:36:30;14.50;99.90
49503;DHT22;35409;48.776;9.204;2024-03-08T14:38:55;14.50;99.90
49503;DHT22;35409;48.776;9.204;2024-03-08T14:41:21;14.50;99.90
49503;DHT22;35409;48.776;9.204;2024-03-08T14:43:49;14.60;99.90
49503;DHT22;35409;48.776;9.204;2024-03-08T14:46:18;14.70;99.90
49503;DHT22;35409;48.776;9.204;2024-03-08T14:48:52;14.60;99.90
49503;DHT22;35409;48.776;9.204;2024-03-08T14:51:20;14.50;99.90
49503;DHT22;35409;48.776;9.204;2024-03-08T14:53:54;14.60;99.90
49503;DHT22;35409;48.776;9.204;2024-03-08T14:56:21;14.70;99.90
49503;DHT22;35409;48.776;9.204;2024-03-08T14:58:48;14.90;99.90
49503;DHT22;35409;48.776;9.204;2024-03-08T15:01:17;14.90;99.90
49503;DHT22;35409;48.776;9.204;2024-03-08T15:03:47;15.20;99.90
49503;DHT22;35409;48.776;9.204;2024-03-08T15:06:13;15.50;99.90
49503;DHT22;35409;48.776;9.204;2024-03-08T15:08:41;15.50;99.90
49503;DHT22;35409;48.776;9.204;2024-03-08T15:11:07;15.50;99.90
49503;DHT22;35409;48.776;9.204;2024-03-08T15:13:34;15.50;99.90
49503;DHT22;35409;48.776;9.204;2024-03-08T15:16:13;15.20;99.90
49503;DHT22;35409;48.776;9.204;2024-03-08T15:18:42;15.20;99.90
49503;DHT22;35409;48.776;9.204;2024-03-08T15:21:13;15.20;99.90
49503;DHT22;35409;48.776;9.204;2024-03-08T15:23:43;15.50;99.90
49503;DHT22;35409;48.776;9.204;2024-03-08T15:26:13;15.60;99.90
49503;DHT22;35409;48.776;9.204;2024-03-08T15:28:38;15.60;99.90
49503;DHT22;35409;48.776;9.204;2024-03-08T15:31:05;15.50;99.90
49503;DHT22;35409;48.776;9.204;2024-03-08T15:33:35;15.40;99.90
49503;DHT22;35409;48.776;9.204;2024-03-08T15:36:08;15.20;99.90
49503;DHT22;35409;48.776;9.204;2024-03-08T15:38:35;15.00;99.90
49503;DHT22;35409;48.776;9.204;2024-03-08T15:41:02;15.00;99.90
49503;DHT22;35409;48.776;9.204;2024-03-08T15:43:33;14.80;99.90
49503;DHT22;35409;48.776;9.204;2024-03-08T15:46:02;14.90;99.90
49503;DHT22;35409;48.776;9.204;2024-03-08T15:48:30;14.70;99.90
49503;DHT22;35409;48.776;9.204;2024-03-08T15:50:57;14.60;99.90
49503;DHT22;35409;48.776;9.204;2024-03-08T15:53:22;14.50;99.90
49503;DHT22;35409;48.776;9.204;2024-03-08T15:55:49;14.50;99.90
49503;DHT22;35409;48.776;9.204;2024-03-08T15:58:15;14.30;99.90
49503;DHT22;35409;48.776;9.204;2024-03-08T16:00:40;14.10;99.90
49503;DHT22;35409;48.776;9.204;2024-03-08T16:03:13;14.10;99.90
49503;DHT22;35409;48.776;9.204;2024-03-08T16:05:46;13.90;99.90
49503;DHT22;35409;48.776;9.204;2024-03-08T16:08:14;13.60;99.90
49503;DHT22;35409;48.776;9.204;2024-03-08T16:10:42;13.10;99.90
49503;DHT22;35409;48.776;9.204;2024-03-08T16:13:14;12.60;99.90
49503;DHT22;35409;48.776;9.204;2024-03-08T16:55:04;9.20;99.50
49503;DHT22;35409;48.776;9.204;2024-03-08T16:57:39;9.10;99.90
49503;DHT22;35409;48.776;9.204;2024-03-08T17:00:11;8.80;99.90
49503;DHT22;35409;48.776;9.204;2024-03-08T17:17:20;8.00;99.90
49503;DHT22;35409;48.776;9.204;2024-03-08T17:19:46;8.00;99.90
49503;DHT22;35409;48.776;9.204;2024-03-08T19:39:45;6.10;99.90
49503;DHT22;35409;48.776;9.204;2024-03-08T19:42:11;5.90;99.90
49503;DHT22;35409;48.776;9.204;2024-03-08T19:44:37;5.80;99.90
49503;DHT22;35409;48.776;9.204;2024-03-08T19:47:04;5.80;99.90
49503;DHT22;35409;48.776;9.204;2024-03-08T19:49:31;5.70;99.90
49503;DHT22;35409;48.776;9.204;2024-03-08T19:51:58;5.70;99.90
49503;DHT22;35409;48.776;9.204;2024-03-08T19:54:25;5.70;99.90
49503;DHT22;35409;48.776;9.204;2024-03-08T19:56:51;5.70;99.90
49503;DHT22;35409;48.776;9.204;2024-03-08T19:59:18;5.60;99.90
49503;DHT22;35409;48.776;9.204;2024-03-08T20:01:44;5.50;99.90
49503;DHT22;35409;48.776;9.204;2024-03-08T20:04:10;5.40;99.90
49503;DHT22;35409;48.776;9.204;2024-03-08T20:06:37;5.30;99.90
49503;DHT22;35409;48.776;9.204;2024-03-08T20:26:19;5.10;99.90
49503;DHT22;35409;48.776;9.204;2024-03-08T20:28:47;4.90;99.90
49503;DHT22;35409;48.776;9.204;2024-03-08T20:31:13;4.80;99.90
49503;DHT22;35409;48.776;9.204;2024-03-08T20:33:39;4.80;99.90
49503;DHT22;35409;48.776;9.204;2024-03-08T20:36:07;4.70;99.90
49503;DHT22;35409;48.776;9.204;2024-03-08T20:38:35;4.70;99.90
